events-overview

Buckner Mission Man Sprint

 

Overall Men

Lake Cammack Park & Marina - 4790 Union Ridge Road - Burlington, NC 27217 7/26/2008 09:00AM

** Results are for the private use of participants and are the Intellectual Property of Set Up Events. Unauthorized use of these results is prohibited.

Place Bib Cat Ag NAME CITY/STATE Rank SWIM T1 Rank BIKE T2 Rank RUN PENALTY TIME DQ
1358 28PARKER ROTHSPARTANBURG SC1300:13:1600:00:33300:36:2900:00:56600:17:34 01:08:45 
2448 32THYS WINDRALEIGH NC500:11:5100:00:28500:37:1900:00:461300:18:49 01:09:11 
363 36KENNETH BUSHWINSTON-SALEM NC1600:13:2000:00:41200:36:2600:00:39800:18:10 01:09:15 
4396 30TIM SURFACERALEIGH NC4100:15:0500:00:49100:35:4300:00:43400:17:05 01:09:24 
5511 35JOHN DEWEYGREENSBORO NC400:11:4900:00:37800:38:3300:00:43700:18:10 01:09:49 
6376 29JOHN SHILTWINSTON-SALEM NC600:12:2500:00:51400:36:5300:00:512400:20:08 01:11:06 
7246 17LAWSON KUEHNERTMORGANTON NC1100:12:4200:00:361400:39:0900:00:481500:18:51 01:12:04 
8200 38BRAD HERNDONGREENSBORO NC300:11:4800:00:394500:41:1900:00:491900:19:29 01:14:02 
9286 22GRAHAM MCGINNISCHAPEL HILL NC900:12:3800:00:481000:38:5500:01:013200:20:47 01:14:08 
10441 45JEFFREY WILCOXDURHAM NC2700:14:3300:00:501200:38:5800:00:521600:19:16 01:14:27 
1164 35OWEN CALVERTWINSTON-SALEM NC4400:15:1800:00:55600:37:4900:01:091800:19:28 01:14:37 
12201 39HILTON HERNDONGREENSBORO NC1700:13:3000:00:561700:39:1800:01:122200:19:46 01:14:41 
13316 19TIM O'BRIENDURHAM NC800:12:3700:01:035200:41:5400:01:09900:18:15 01:14:55 
14306 56DALE MOSHERANDERSON SC2000:13:4700:00:50700:37:5200:00:554400:21:41 01:15:04 
15285 23MATT MCARTHURRALEIGH NC2500:14:2700:00:471500:39:1200:00:412300:20:08 01:15:13 
16232 44DAVID KAATKERNERSVILLE NC2800:14:3800:00:443900:40:3700:01:051000:18:21 01:15:23 
1719 46ALI ARASTAASHEBORO NC4900:15:3300:00:502100:39:2200:01:072000:19:33 01:16:24 
18161 30TIM GAUTREAURALEIGH NC6400:16:0800:00:432200:39:2400:00:522100:19:37 01:16:42 
1993 56FLOYD COOKCARY NC1900:13:4600:00:441300:39:0500:00:596400:22:22 01:16:55 
20271 15IAN P MACFAWNLAVALE MD1000:12:4200:01:347400:42:5800:01:071100:18:38 01:16:57 
2167 29GREG CAPPSRALEIGH NC1400:13:1800:01:153300:40:1800:00:593700:21:12 01:17:00 
2227 46EDDIE BARNETTHILLSBOROUGH NC4300:15:1100:01:002000:39:2200:00:453600:20:57 01:17:14 
23193 40JOHN HAWSDURHAM NC6100:16:0400:00:412600:39:4000:00:552500:20:14 01:17:31 
24333 41RICHARD PUCKETTRALEIGH NC8200:16:4200:00:531100:38:5700:00:552800:20:36 01:18:02 
2520 40TED ARMOURBURLINGTON NC8000:16:3500:00:441600:39:1600:00:593100:20:40 01:18:12 
26166 49CRAIG GILBERTDURHAM NC3400:14:5000:00:413100:40:0600:00:554500:21:42 01:18:13 
27255 39WARD LENZAPEX NC2400:14:0800:01:124900:41:4800:01:122700:20:14 01:18:33 
28343 52RICH REDDINGRALEIGH NC2600:14:3100:00:532900:39:5200:01:047400:22:48 01:19:07 
29211 41DOUG HOLROYDCHAPEL HILL NC6600:16:1000:00:404200:40:5900:01:221200:18:3800:02:0001:19:48 
30331 37ROBERT PRESTWOODWINSTON-SALEM NC1500:13:1900:00:517000:42:4000:00:556200:22:22 01:20:04 
PlaceBibCatAgNAMECITY/STATERankSWIMT1RankBIKET2RankRUNPENALTYTIMEDQ
31326 47GERHARD PILCHERMOUNT AIRY NC9600:17:1200:01:041900:39:2200:01:163900:21:18 01:20:10 
32141 35WILLIAM EVERITTCARY NC5100:15:3500:00:523800:40:3600:01:115600:22:05 01:20:17 
33355 32BRYAN NATURE B RONEYBURLINGTON NC7100:16:1800:00:372500:39:3100:00:599000:23:29 01:20:53 
34213 43MICHAEL HOLTBURLINGTON NC5600:15:4600:00:496700:42:3000:00:583500:20:57 01:20:58 
35223 36WILLIAM DENNIS HUTCHINSONWINSTON SALEM NC7900:16:3400:00:554600:41:2400:00:524100:21:27 01:21:10 
3614 49DAVID ALLENFAYETTEVILLE NC8400:16:5000:02:202800:39:5200:00:394700:21:45 01:21:24 
37502 61TITO CRAIGECHAPEL HILL NC2300:14:0400:01:183400:40:2600:01:0612500:24:38 01:21:29 
38317 38SCOTT OLIAROCHAPEL HILL NC6200:16:0500:01:339500:43:4600:01:021700:19:23 01:21:47 
39187 18BRANDON HALSTEADASHLAND VA5700:15:5800:01:3212500:44:4600:00:451400:18:50 01:21:49 
40391 15CONNOR STEMPLEHICKORY NC2900:14:3900:00:598300:43:2000:01:084600:21:44 01:21:49 
41318 27JEREMY O'NEALWINSTON SALEM NC13900:18:4000:01:022300:39:2400:00:555100:21:54 01:21:53 
42295 47LOU METZGERHILLSBOROUGH NC2100:13:5000:00:585900:42:0300:00:4811600:24:17 01:21:54 
43195 37BRAD HECKERMEBANE NC12900:18:1700:00:422400:39:3100:00:572900:20:3600:02:0001:22:01 
44209 40CHRIS HOLLANDASHEBORO NC6800:16:1000:00:496000:42:0400:01:056900:22:38 01:22:44 
45240 21ROBBY KNELSONELON NC6000:16:0400:01:044800:41:4500:01:406300:22:22 01:22:52 
4699 28ANDREW CORBINHIGH POINT NC13000:18:1800:01:322700:39:4300:01:314800:21:51 01:22:53 
47452 29MATT WOODGREENSBORO NC1200:12:5500:01:4311200:44:1200:01:147600:22:56 01:22:58 
48243 50WESLEY KOONTSGREENSBORO NC9700:17:1300:00:476400:42:2100:00:525000:21:53 01:23:04 
49203 34STEVE HOBBSRALEIGH NC12800:18:1300:00:543200:40:1000:01:007800:23:00 01:23:16 
50148 27CHRISTOPHER FLETCHERFAYETTEVILLE NC9000:16:5900:01:104000:40:3700:01:058900:23:27 01:23:17 
51500 27JUSTIN SMITHMEBANE NC8100:16:4000:01:194300:40:5900:01:028800:23:26 01:23:24 
52369 36CHRIS SCOTTRALEIGH NC12100:18:0300:00:585100:41:5300:01:044300:21:40 01:23:36 
53227 29ROBBIE JESSENLINWOOD NC6300:16:0700:00:577200:42:5500:00:557300:22:46 01:23:39 
54134 32PETE ELDERMEBANE NC5300:15:3700:01:131800:39:2000:01:0017300:26:37 01:23:45 
55407 53TOM TORKILDSENMATTHEWS NC10500:17:3000:01:033000:40:0200:01:1410600:24:05 01:23:52 
56315 39JOSEPH NUSSRALEIGH NC5200:15:3600:00:404700:41:4000:00:5214300:25:06 01:23:53 
57365 19CLAY SANKEYCHARLOTTE NC11100:17:3800:01:273700:40:3400:01:04500:17:1500:06:0001:23:56 
58277 17NATE MARGOLISCHAPEL HILL NC2200:13:5700:00:5312400:44:4400:01:049100:23:31 01:24:08 
59419 37JONATHAN VALBUENAAPEX NC3600:14:5300:01:087300:42:5600:01:329500:23:43 01:24:09 
60398 33GRAY TALLEYRALEIGH NC6700:16:1000:00:449300:43:4400:01:036500:22:31 01:24:10 
61208 36LOUIS HOLDSTOCKCARY NC3500:14:5100:01:078000:43:0800:01:1410400:23:59 01:24:16 
PlaceBibCatAgNAMECITY/STATERankSWIMT1RankBIKET2RankRUNPENALTYTIMEDQ
6238 16ERIK BIGGSCLAYTON NC700:12:3600:01:0215800:46:2600:01:078200:23:09 01:24:18 
63108 48RAYMOND DAUPHINAISRINDGE NH19800:20:4500:01:4214800:45:5000:01:43100:12:2200:02:0001:24:20Y
64124 27ANDREW DOBBERFUHLCARRBORO NC10800:17:3400:01:243500:40:2700:01:204900:21:5300:02:0001:24:36 
65107MC41BILL DANIELSBURLINGTON NC4600:15:2500:01:155000:41:5100:01:0314400:25:09 01:24:43 
66387 31MATTHEW SOMMERELON NC8900:16:5800:01:127900:43:0600:00:534000:21:2200:02:0001:25:30 
671 50DOUG WILLIAMSSAXAPAHAW NC11300:17:4300:00:545300:41:5600:01:0310100:23:57 01:25:31 
68421 40LALIT VERMACHAPEL HILL NC3000:14:4400:01:1111400:44:1800:01:1111200:24:14 01:25:36 
69339 16ALLEN RAYCARY NC14600:18:5600:00:4311500:44:2300:00:513300:20:49 01:25:41 
70423 38DOUG VREELANDWINSTON-SALEM NC7500:16:2700:00:5413200:45:0800:01:045700:22:12 01:25:43 
71162 39CARY GENTRYSUMMERFIELD NC8600:16:5400:00:5614200:45:2900:00:594200:21:30 01:25:47 
72149 50MICHAEL FLETCHERFAYETTEVILLE NC15500:19:0800:01:154100:40:4800:01:178700:23:24 01:25:51 
73184 34TOMMY HAIRWINSTON SALEM NC7400:16:2600:02:3210800:44:0900:00:545200:21:58 01:25:57 
74157 32BRETT GALESHIGH POINT NC13400:18:2100:00:4310300:44:0000:00:536000:22:20 01:26:15 
75413 15JOHN TROLLINGERASHEBORO NC19600:20:4200:00:365700:42:0100:00:495800:22:14 01:26:21 
76322 40RICHARD PARKSARCHDALE NC9200:17:0400:00:586100:42:0500:01:1214800:25:18 01:26:35 
7729C39BRET BATCHELDERRALEIGH NC11800:17:5600:01:563600:40:3000:01:2114100:25:05 01:26:46 
78228 32BRIAN JOHNSONGASTONIA NC9300:17:0700:01:149800:43:5200:00:529700:23:48 01:26:51 
7944MC40JOHN BONEYRALEIGH NC4500:15:2000:01:1710700:44:0700:01:1314000:25:05 01:27:01 
80375 36MARVIN SHERRONWINSTON-SALEM NC4800:15:3200:01:0815400:46:1600:00:568600:23:16 01:27:06 
81171 54BARRY GOLDMANGREENSBORO NC7800:16:3400:01:0711700:44:2800:01:249600:23:45 01:27:16 
82372 32SHANNON SCOTTJULIAN NC17500:19:5200:01:1810500:44:0300:01:203400:20:52 01:27:24 
83453 37CHRIS WOODSWHITSETT NC15300:19:0500:00:558700:43:2500:00:598100:23:07 01:27:28 
8460 41MONTY BUCHANANAPEX NC18600:20:1300:01:165400:41:5600:01:296800:22:38 01:27:30 
85454 52DOUGLAS WORRALLVIRGINIA BEACH VA5900:16:0000:02:208100:43:0800:01:1513100:24:51 01:27:33 
86360 33BRIAN SABORALEIGH NC14300:18:5100:01:1810000:43:5600:01:275400:22:03 01:27:33 
87340 51LARRY RAYCARY NC12000:18:0000:01:046600:42:2800:01:0013800:25:03 01:27:34 
88444 56MARK CRISSMANBURLINGTON NC7600:16:2700:01:019100:43:4000:00:5915400:25:32 01:27:36 
89244 49WERNER KRANDICKCARY NC3300:14:5000:01:4911600:44:2400:01:2414700:25:12 01:27:38 
9034 35DAN BESSETTEMIDLAND NC3100:14:4500:00:5210400:44:0100:01:0618300:26:58 01:27:41 
91427 48SCOTT WALKERSALISBURY NC13100:18:1800:01:349400:43:4500:01:277100:22:41 01:27:44 
926 29PATRICK MILLSBURLINGTON NC3900:14:5700:01:166500:42:2700:01:1920200:27:51 01:27:48 
PlaceBibCatAgNAMECITY/STATERankSWIMT1RankBIKET2RankRUNPENALTYTIMEDQ
93388 17JORDAN SOUTHERNHAW RIVER NC11600:17:4700:01:4512000:44:3900:01:017200:22:43 01:27:54 
94140 38LAYTON EVERITTSTONEVILLE NC20600:21:0400:00:568500:43:2100:01:233800:21:13 01:27:54 
95352 33BRENT ROBERTSONREIDSVILLE NC13500:18:2200:01:0314500:45:3700:00:575300:22:00 01:27:57 
96425 39DAVID WAGNERCARY NC12700:18:1300:01:2511300:44:1700:01:147700:22:57 01:28:04 
97235 47FRAZIER KECKCHAPEL HILL NC12200:18:0500:00:579700:43:5000:01:1011900:24:25 01:28:25 
98395 39MATTHEW SUPINACARY NC13800:18:3800:01:086800:42:3000:01:4612000:24:26 01:28:25 
99130 45JAMES EASTHOMCHAPEL HILL NC9100:17:0100:01:5115600:46:1700:01:175500:22:04 01:28:28 
10073MC45BOB CHANDLERBURLINGTON NC16200:19:2000:01:216300:42:1000:01:2012100:24:27 01:28:36 
10128 37COLIN BARROWSFUQUAY NC15700:19:1300:00:409000:43:3200:01:0011700:24:19 01:28:43 
102247 38STEVE LACKEYDURHAM NC10100:17:2000:01:176200:42:0800:01:1817800:26:47 01:28:48 
103367 28RYAN SAUERWINSTON-SALEM NC6900:16:1100:01:2016800:47:0200:01:447000:22:41 01:28:56 
10455 37DOUG BROWNRALEIGH NC19000:20:2700:01:517800:43:0200:01:246100:22:22 01:29:03 
105332 21JAMEY PRICEMINERAL SPRINGS NC1800:13:3500:02:449200:43:4300:01:5119000:27:14 01:29:05 
106378MC45CHRIS B. SMITHCHAPEL HILL NC3700:14:5300:01:077600:43:0100:01:2218100:26:5400:02:0001:29:15 
107245 23JUSTIN KRAUSEHAMPSTEAD NC12500:18:1200:01:3911100:44:1100:00:5911800:24:20 01:29:20 
108403MC43CARL THOMASONHENDERSON NC7700:16:2800:00:557500:42:5900:01:0920500:27:55 01:29:23 
109435MC46PATRICK WEBSTERRALEIGH NC11000:17:3500:01:055600:42:0000:01:1515700:25:3600:02:0001:29:29 
11051 40CURT BREWERRALEIGH NC15600:19:1000:02:029600:43:4800:01:307900:23:04 01:29:31 
11197 22JACKSON COPPOCKELON NC14400:18:5500:03:1915500:46:1700:01:082600:20:14 01:29:51 
11296 35JEFFREY COONSERALEIGH NC11400:17:4400:01:1615700:46:1800:01:288500:23:14 01:29:58 
113176 21JUSTIN GRICHELON NC9400:17:0800:01:4117200:47:1100:01:058000:23:07 01:30:10 
114177 30DANNY GROBERANDLEMAN NC16000:19:1800:01:1011800:44:2900:02:237500:22:54 01:30:12 
11590 38PATRICK COLEMANWAKE FOREST NC7200:16:2000:01:3416700:47:0200:01:0211400:24:15 01:30:12 
116205MC42CHRIS HOLADAYLEASBURG NC3800:14:5400:01:1417600:47:1500:01:3315300:25:21 01:30:15 
117188 40GREG HAMLYNCARY NC11500:17:4500:01:3014300:45:3300:01:2211300:24:14 01:30:23 
118414 33ALAN TURNERHIGH POINT NC17300:19:5000:01:3913900:45:2700:00:576700:22:37 01:30:28 
119257 44CRAIG LEWISCHAPEL HILL NC10600:17:3100:01:1212600:44:5100:01:1715800:25:41 01:30:30 
120189 25MATTHEW HARMERFAYETTEVILLE NC5500:15:4500:00:575800:42:0100:01:1023900:30:42 01:30:32 
12192 51PAUL CONWAYRALEIGH NC10400:17:2900:01:3210100:43:5600:01:2617100:26:34 01:30:56 
122323 36JASON PETERSCHAPEL HILL NC10000:17:1700:01:288900:43:2800:01:2019200:27:27 01:30:59 
123251C38NEIL LASLEYSUMMERFIELD NC14200:18:4900:01:246900:42:3600:01:1818200:26:57 01:31:02 
PlaceBibCatAgNAMECITY/STATERankSWIMT1RankBIKET2RankRUNPENALTYTIMEDQ
124415 34BRIAN TURNERWAKE FOREST NC17000:19:4400:00:5512200:44:4300:01:0412800:24:43 01:31:08 
125401 45JOHN TATEBURLINGTON NC16500:19:2800:02:4917700:47:1600:01:093000:20:36 01:31:16 
126263 20JUSTIN LONGKERNERSVILLE NC23600:23:1300:03:2117000:47:0500:04:35200:13:11 01:31:23Y
127304 35JOHN MORRISWINSTON-SALEM NC10200:17:2300:01:4713000:45:0800:01:2216200:25:46 01:31:24 
128368 48MICHAEL SCHREIBERPLEASANT GARDEN NC5000:15:3400:01:3515100:46:0800:01:1218400:27:00 01:31:27 
129198 38MIKE HERBRALEIGH NC13700:18:3000:01:418200:43:1900:01:3416900:26:29 01:31:31 
130270 56IAN MACFAWNLAVALE MD5400:15:3800:01:4312100:44:4200:01:4220100:27:49 01:31:31 
131288 50ED MCLEODRALEIGH NC3200:14:4900:01:5616600:46:5400:01:1917400:26:38 01:31:34 
132382 47TIMOTHY SMITHHILLSBOROUGH NC15100:18:5900:01:1912800:44:5900:01:1914600:25:11 01:31:46 
133291 12MICHAEL MEBELADVANCE NC200:11:4400:01:3924200:52:3300:01:0713600:25:02 01:32:03 
134114 13JARED DEMBSKINEBO NC4700:15:3200:01:0622500:50:4100:00:5010500:24:04 01:32:12 
135513 44MICHAEL BABBITTHILLSBOROUGH NC17400:19:5000:01:0810600:44:0600:01:2715900:25:43 01:32:12 
1367 42MARK MEHAFFEYSAXAPAHAW NC17200:19:4800:01:1418400:47:3200:01:285900:22:15 01:32:15 
137126 45FREDERICK DOOLITTLEROUGEMONT NC6500:16:0800:02:1319800:48:2400:01:3810200:23:57 01:32:17 
138516 39ROBERT PHILLIPSCHARLOTTE NC11200:17:4000:02:378800:43:2700:01:5313400:24:5700:02:0001:32:33 
139112 48STEPHEN DEANCARY NC19700:20:4300:01:3313400:45:1300:01:1210300:23:59 01:32:36 
140379 28DANIEL SMITHDURHAM NC14800:18:5800:01:339900:43:5500:02:5915200:25:19 01:32:41 
141308 41LEE MOTLEYHOLLY SPRINGS NC18300:20:1100:02:1713700:45:2000:01:528300:23:10 01:32:48 
142341 33BILL RAYMONDGREENSBORO NC18700:20:2300:01:168400:43:2000:01:2417700:26:42 01:33:03 
143242 40DAVID KNIGHTRALEIGH NC7300:16:2200:01:3919100:47:4800:01:4115600:25:36 01:33:04 
14466 36CHRIS CAMUGLIARALEIGH NC18500:20:1200:01:3315000:46:0600:01:0910800:24:07 01:33:05 
145432 45THOMAS WATERHOUSEMEBANE NC21600:21:3700:01:3811000:44:1000:01:519900:23:55 01:33:10 
146402 48GLENN THALLERBURLINGTON NC14000:18:4100:02:015500:41:5700:01:3821500:28:55 01:33:10 
147179 35TODD GROOMSHILLSBOROUGH NC13600:18:2800:01:4619400:48:0900:01:398400:23:11 01:33:11 
14845 57DENNIS BONGIORNIDURHAM NC22500:22:0700:01:0612300:44:4300:01:1110900:24:07 01:33:13 
14925 52GREG BALLWEGACWORTH GA22200:22:0200:01:3510900:44:1000:01:2411500:24:16 01:33:25 
1502 48TED CHANDLERBURLINGTON NC17600:19:5800:01:4114600:45:3900:01:2613000:24:47 01:33:28 
15171 36MARK CAVERLYRALEIGH NC16800:19:3900:01:1116200:46:4800:01:2012300:24:33 01:33:29 
152311C31AARON MYALLCAMERON NC16100:19:1900:01:1110200:43:5800:01:2319900:27:47 01:33:35 
153250 38DAVID LAPPCHAPEL HILL NC13300:18:2100:01:2216500:46:5300:01:2116000:25:45 01:33:40 
154404 34JAY TOLINWINSTON-SALEM NC17100:19:4500:01:4613500:45:1400:01:5913500:24:59 01:33:41 
PlaceBibCatAgNAMECITY/STATERankSWIMT1RankBIKET2RankRUNPENALTYTIMEDQ
155428 32TIM WALKERWAKE FOREST NC12300:18:0500:01:4120000:48:2700:01:2411000:24:09 01:33:45 
156182 43ALEX HAGANCARY NC17700:20:0100:01:5313600:45:1700:01:2514500:25:10 01:33:45 
157155 33MICHAEL FUTRELLHIGH POINT NC23000:22:3000:02:407700:43:0100:01:4610000:23:57 01:33:52 
15815 35MICHAEL AMAZONKERNERSVILLE NC9800:17:1500:01:2518600:47:3500:01:4016300:26:00 01:33:54 
159258 35JAY LEWISDURHAM NC10700:17:3200:01:5619900:48:2600:01:3712700:24:39 01:34:07 
160233 37MICHAEL KAPLANGREENSBORO NC20700:21:0400:02:2114100:45:2700:01:1410700:24:05 01:34:09 
16187 39TIM CLOUGHERTYRALEIGH NC11900:17:5900:01:5018500:47:3400:02:0512900:24:45 01:34:12 
162373 50WILLIAM SCOTTCLAYTON NC16300:19:2100:01:1517300:47:1200:01:0915000:25:18 01:34:14 
16372 46JOHN CERRAJAMESTOWN NC14900:18:5800:01:5813300:45:1000:01:3517200:26:36 01:34:15 
164335 35CHAD RAGAINSDURHAM NC8800:16:5700:02:0818800:47:4100:01:1716600:26:16 01:34:17 
165150 39KEITH FLOWEBROWNS SUMMIT NC13200:18:1900:02:3817100:47:1000:02:0711100:24:09 01:34:21 
166261 24JOSHUA LONGKERNERSVILLE NC18800:20:2400:01:488600:43:2400:02:0418900:27:12 01:34:50 
167153 41MATTHEW FORTIERRALEIGH NC16700:19:3000:02:4418300:47:3100:01:319400:23:42 01:34:57 
168297MC45ERIC MISENHEIMERMEBANE NC18000:20:0700:01:417100:42:4800:01:4021200:28:48 01:35:02 
169225 49THOMAS JEFFRIESRALEIGH NC15200:19:0400:02:2314400:45:3600:01:1213900:25:0300:02:0001:35:16 
170350MC41JOHN RIDERCLAYTON NC12600:18:1300:01:0512900:45:0700:01:1522800:29:47 01:35:25 
171446 31JAY WILLIFORDHIGH POINT NC18900:20:2700:02:0512700:44:5700:01:0818000:26:51 01:35:27 
172118 41ROGER DICKERALEIGH NC8500:16:5100:01:5116000:46:3100:01:3021600:28:56 01:35:37 
17340 40ANTHONY BILLERRALEIGH NC4200:15:0600:01:1919300:47:5900:01:4320400:27:5100:02:0001:35:56 
174390 34DEREK STANLEYFUQUAY VARINA NC4000:15:0300:01:1017900:47:1600:01:4624200:30:49 01:36:03 
175174 30JOSHUA GORDONLILLINGTON NC19500:20:4100:01:4018700:47:4000:01:1413200:24:51 01:36:04 
176405 26BRAD TOMLINHIGH POINT NC19900:20:4800:02:4613800:45:2600:01:0816700:26:18 01:36:24 
177259 50ROBERT LITTLEAPEX NC21800:21:5200:01:2813100:45:0800:01:0118500:27:01 01:36:29 
178154 41JEFF FREERCARY NC21200:21:2200:01:4615200:46:1100:01:2816100:25:45 01:36:29 
179131MC46MARTYN EASTONLENOIR NC20300:20:5700:01:0511900:44:3400:01:1121000:28:45 01:36:30 
180507 54MARSHAL CATESHILLSBOROUGH NC14100:18:4500:01:0816100:46:4500:01:2220900:28:41 01:36:39 
181344C30JUSTIN REDFERNGAITHERSBURG MD8300:16:4900:02:3021000:49:1000:00:5619300:27:30 01:36:54 
182194 45KEN HAYMANAPEX NC16600:19:2800:01:3315300:46:1100:01:2720600:28:18 01:36:55 
183298 27GREGORY MISTLERRAEFORD NC18400:20:1100:01:3521200:49:1800:00:5014200:25:05 01:36:57 
184101 45ED CORNWELLWAKE FOREST NC20500:21:0100:01:5214700:45:4300:01:2618600:27:03 01:37:03 
185122 40MARK DIXONREIDSVILLE NC15000:18:5900:01:1920300:48:4400:01:0118700:27:06 01:37:08 
PlaceBibCatAgNAMECITY/STATERankSWIMT1RankBIKET2RankRUNPENALTYTIMEDQ
186169MC40JAMES GLENNRALEIGH NC23100:22:3200:01:5718200:47:2900:01:559200:23:34 01:37:25 
187180 44ROBERT GUSTINESRALEIGH NC9500:17:1200:02:0016900:47:0500:01:2422900:29:48 01:37:26 
188152 59ED FOREWILMINGTON NC21700:21:4400:01:4717500:47:1500:01:3515100:25:19 01:37:39 
189364 33PAUL SANDERSGREENSBORO NC9900:17:1500:02:074400:41:1100:02:2121400:28:5100:06:0001:37:42 
190147 25CHRIS FLEMINGFAYETTEVILLE NC22000:21:5500:01:5621600:49:4400:00:599300:23:36 01:38:08 
191135 35JOHN ERHARTRALEIGH NC16900:19:4300:02:1420200:48:4300:01:5815500:25:36 01:38:12 
192422 50JOE VOSHELLDURHAM NC20100:20:5300:01:1817400:47:1400:02:0518800:27:11 01:38:39 
193346 55FAIRFAX REYNOLDSBURLINGTON NC15400:19:0600:01:3821500:49:3600:00:5519500:27:37 01:38:49 
19430 45ROBERT BAUCHLESUMMERFIELD NC7000:16:1500:03:3523600:51:5300:01:0516500:26:11 01:38:57 
195275 21DAVID MARGOLISELON NC15800:19:1500:02:5323500:51:5100:01:079800:23:53 01:38:58 
19617 39CHRIS ANGELLCARY NC5800:15:5800:02:3419500:48:1600:02:4022700:29:36 01:39:02 
197397MC41JAMES SWINGLERALEIGH NC16400:19:2200:01:4921700:49:4400:01:2217900:26:48 01:39:03 
198282 41VENUS MAYNORPEMBROKE NC26500:30:2600:03:1220600:48:5300:03:02300:13:38 01:39:09Y
199307 20KYLE MOTLEYHOPE MILLS NC23400:22:4200:01:3519000:47:4700:00:5816800:26:21 01:39:22 
200313 45DOUG NIEMICRALEIGH NC20400:20:5700:02:0414900:46:0000:01:1522300:29:16 01:39:30 
201501 25JOHN WILKINSFRISCO CO   14000:45:2700:01:5922500:29:29 01:39:35 
202207MC41JAYMES HOLDENPINEVILLE NC15900:19:1800:01:1720900:49:1000:01:1221100:28:47 01:39:41 
203129 62GREG DUNNSALISBURY NC23900:23:3700:01:0620400:48:4900:02:0412200:24:27 01:40:00 
204253 46GARY LEACHHORNELL NY14700:18:5700:03:3921100:49:1500:02:0117500:26:40 01:40:30 
205303 27GRAHAM MORRISTOWSON MD21400:21:3600:01:2623300:51:2300:01:0713700:25:03 01:40:34 
20662 47RICHARD BUSCATOCHARLOTTE NC24400:24:5900:01:4918000:47:1700:01:5312600:24:38 01:40:34 
207305 49STEVE MORRISTRINITY NC19400:20:3800:01:1122000:50:0800:01:0419600:27:39 01:40:38 
208514 16JORDAN KINGRALEIGH NC         01:40:38 
20981 55BRAN CLARKMEBANE NC21500:21:3600:02:1821300:49:1800:01:3616400:26:03 01:40:50 
21039 45STEVE BIGGSCLAYTON NC14500:18:5500:01:4420500:48:5100:01:5122600:29:33 01:40:54 
211392 51JACK STEVENSONGREENSBORO NC24700:25:2100:01:4918100:47:1700:02:1912400:24:34 01:41:18 
212299 24JOHN MOORERAEFORD NC24800:25:2400:01:3419700:48:2300:00:5214900:25:18 01:41:30 
213281 45BRYAN MAYNORPEMBROKE NC19200:20:3600:02:2418900:47:4300:02:0221700:28:57 01:41:40 
214426 36KENNETH WALKERWAKE FOREST NC10300:17:2400:02:3324600:53:3100:00:5919400:27:33 01:41:59 
215172 38MICAH GOLDSTEINGREENSBORO NC20900:21:0600:02:2119600:48:1700:01:3221300:28:50 01:42:05 
216230 23CHRISTOPHER JONESFAYETTEVILLE NC19100:20:3500:01:5015900:46:2700:01:3825000:31:57 01:42:25 
PlaceBibCatAgNAMECITY/STATERankSWIMT1RankBIKET2RankRUNPENALTYTIMEDQ
217268 42SAM MACDOUGALLCARY NC20800:21:0500:01:4719200:47:5000:01:5023200:29:56 01:42:25 
21888 44JOHN COLBERTCHARLOTTE NC20200:20:5700:01:4716300:46:4900:01:2623100:29:5200:02:0001:42:48 
219499 28LUCAS KRAUTELON NC17900:20:0600:02:1222900:51:1100:01:5920300:27:51 01:43:17 
220515 13MICHAEL KINGRALEIGH NC         01:43:40 
221508 44ANDY HEARNBURLINGTON NC22800:22:1500:01:4220700:48:5600:01:1423000:29:50 01:43:54 
222278 54PETER MARGOLISCHAPEL HILL NC10900:17:3500:01:4624300:52:3400:01:3723600:30:29 01:44:00 
223384 46STEVE SOLVASONBUFORD GA22100:21:5600:02:3124100:52:2400:01:0517000:26:33 01:44:28 
224151 41GAVIN FORDBEND OR24000:24:0500:01:5722600:50:4600:00:5613300:24:5500:02:0001:44:38 
225406 20MARCO TORELLIMORRISVILLE NC12400:18:1100:02:2624700:53:4000:01:3022200:29:15 01:45:01 
22669 43FRED CARTERRANDLEMAN NC24500:25:2000:02:2616400:46:5300:02:0320700:28:24 01:45:04 
227224 49BILL IVEYSHELBURNE FALLS MA23500:22:5400:03:1524800:53:5700:02:246600:22:35 01:45:04 
228505MC49DENNIS CROWEMEBANE NC22300:22:0400:02:4621900:49:4800:02:1420800:28:32 01:45:23 
229197 37PATRICK HENRYBURLINGTON NC21300:21:3400:02:5222400:50:3100:01:0923300:30:00 01:46:05 
23016 53JOEY ANDERSONZEBULON NC19300:20:3600:02:5624500:53:0300:01:3122000:29:03 01:47:08 
231383 54WILTON SMITHBURLINGTON NC23700:23:1600:03:4223400:51:4500:01:0919100:27:20 01:47:10 
232506 48TATUM BOULWARE, JRELON NC22900:22:1800:02:5023100:51:1700:01:5122100:29:09 01:47:23 
233260 36CHRISTOPHER LOHRFAYETTEVILLE NC8700:16:5600:01:2723700:52:0400:01:5725900:35:31 01:47:53 
234159 34JAMES GARRISLILLINGTON NC18100:20:0800:01:3423800:52:1000:02:1024900:31:57 01:47:58 
235430 52JIM WALSHRALEIGH NC23200:22:3300:02:0522800:51:0500:02:1523400:30:07 01:48:04 
23613 54JAMES ALLARDCARY NC25400:27:0000:01:4022200:50:1600:01:4719800:27:44 01:48:25 
237455 52JEFF YANCEYASHEVILLE NC24200:24:4600:02:1520100:48:3600:01:5224400:31:12 01:48:39 
238381 22JONATHAN SMITHBURLINGTON NC24100:24:1500:03:0421400:49:2500:01:3324100:30:48 01:49:03 
239236 47MARK KEMPBURLINGTON NC21000:21:0700:02:5423200:51:1900:01:5125100:32:02 01:49:11 
240310 34TODD MUNDYBURLINGTON NC23800:23:2100:02:2524900:54:1000:01:0321900:29:02 01:49:59 
241222 41STEVE HUNTPEMBROKE NC23300:22:3700:01:4723900:52:1500:02:0724700:31:33 01:50:17 
242445C37MATTHEW WILLIAMSONDURHAM NC17800:20:0400:02:4925100:54:2200:01:4824800:31:52 01:50:52 
243517 42MARK GENTRYRALEIGH NC21100:21:1400:02:4625700:57:3200:01:2322400:29:18 01:52:11 
244229MC45STEVEN JOHNSONRALEIGH NC11700:17:4900:02:1725000:54:1100:03:4425800:34:32 01:52:31 
245301 31JOSHUA MORDARSKIFAYETTEVILLE NC22700:22:1300:02:0226100:58:1900:02:2520000:27:47 01:52:44 
2464 56MARK HAUSERBURLINGTON NC22400:22:0500:02:0521800:49:4500:01:4226200:37:26 01:53:01 
247451 44BOB WITTJAMESTOWN NC25500:27:1400:02:3620800:49:0900:02:1525400:33:07 01:54:19 
PlaceBibCatAgNAMECITY/STATERankSWIMT1RankBIKET2RankRUNPENALTYTIMEDQ
24875MC45WILLIAM CHESSERDURHAM NC25100:26:5400:02:2723000:51:1600:02:0025200:32:30 01:55:06 
249371 31MATTHEW SCOTTLUMBERTON NC24300:24:5500:03:1525800:57:3500:01:4019700:27:43 01:55:06 
25022 50ROBERT ATTAWAYRALEIGH NC24900:26:0600:01:2722700:50:4800:01:2426000:35:39 01:55:22 
251234 58JOHN KAVANAGHGREENSBORO NC25200:26:5600:02:0125300:55:0000:01:5023700:30:37 01:56:22 
252290 41MARK MEACHAMBURLINGTON NC22600:22:0800:02:0224000:52:1900:01:4026300:39:03 01:57:09 
253348MC42BOB RHINEHARTCANDLER NC18200:20:0900:02:2625200:54:5500:02:0626400:39:03 01:58:37 
254102 39JOHN COXGRAHAM NC25300:26:5600:02:3725500:56:0600:02:1024500:31:14 01:59:01 
255433 62RICHARD WATSONDURHAM NC21900:21:5300:02:2922300:50:2700:03:2626900:41:18 01:59:31 
256221MC47GRADY HUNTPEMBROKE NC24600:25:2100:02:4926000:58:0900:02:1524600:31:24 01:59:56 
25783 44TONY CLARKCARY NC20000:20:5100:04:2026200:58:1900:02:2225700:34:13 02:00:03 
258287 60MICHAEL MCGINNISCHAPEL HILL NC26900:41:3200:01:5117800:47:1600:02:2621800:28:58 02:02:00 
25912 41LOU AGOSTOHUNTERSVILLE NC26000:28:4100:02:2226501:01:0000:01:0824000:30:47 02:03:56 
26065 48AMOR CAMATCHOHUNTERSVILLE NC26100:28:4300:02:1826601:01:0400:01:3023500:30:23 02:03:56 
261106 47RICHARD DAILEYBURLINGTON NC25900:28:3500:02:5926401:00:0900:01:3125300:32:52 02:06:05 
262408 29CHAD TRAILBURLINGTON NC27000:42:1500:05:1122100:50:1100:01:5117600:26:42 02:06:09 
26342 35KEITH BLACKWELLPLEASANT GARDEN NC26400:30:1600:03:2326300:59:3000:01:5325500:33:09 02:08:08 
26476 36SHAHN CHHABRARALEIGH NC25000:26:1700:02:4125900:58:0400:02:2826500:39:17 02:08:46 
265457 39TRACY YOUNGHILLSBOROUGH NC25700:28:0900:02:0225600:56:5800:01:2926800:40:36 02:09:11 
266158 42MICHAEL GARNERBURLINGTON NC26600:31:5300:04:5225400:55:1800:02:1426100:36:28 02:10:44 
267450 25MICHAEL WISEFAYETTEVILLE NC25800:28:1300:02:3027001:08:4800:01:5223800:30:39 02:12:00 
268353 35BRAD ROBINSONRALEIGH NC26300:29:5600:02:5426801:03:4700:02:3525600:33:26 02:12:35 
269439 55DOUG WHITMANLELAND NC25600:27:4300:04:3226901:07:2800:01:5926600:39:53 02:21:33 
27036 71MIKE BIANCOGREENSBORO NC26700:35:0800:07:0226701:02:0600:05:4126700:40:02 02:29:56 
271249 20DANIEL LANGSTONFAYETTEVILLE NC26800:38:1700:03:5227101:18:0000:01:3924300:31:02 02:32:47 
272362 51GREG SANCHEZCARY NC100:11:0900:00:39900:38:5000:01:33     
273218MC40SCOTT HOYTCARY NC26200:29:2800:03:0624400:52:46      

** Results are for the private use of participants and are the Intellectual Property of Set Up Events. Unauthorized use of these results is prohibited.